sensor_id;sensor_type;location;lat;lon;timestamp;pressure;altitude;pressure_sealevel;temperature;humidity
44044;BME280;29709;52.396;16.796;2023-01-29T00:02:39;102731.60;;;1.27;69.44
44044;BME280;29709;52.396;16.796;2023-01-29T00:05:43;102733.66;;;1.21;69.28
44044;BME280;29709;52.396;16.796;2023-01-29T00:08:47;102717.62;;;1.16;69.46
44044;BME280;29709;52.396;16.796;2023-01-29T00:11:50;102713.07;;;1.17;69.33
44044;BME280;29709;52.396;16.796;2023-01-29T00:14:53;102707.88;;;1.10;69.58
44044;BME280;29709;52.396;16.796;2023-01-29T00:17:56;102708.97;;;1.06;69.32
44044;BME280;29709;52.396;16.796;2023-01-29T00:21:00;102693.70;;;1.04;69.39
44044;BME280;29709;52.396;16.796;2023-01-29T00:24:28;102691.95;;;1.03;69.50
44044;BME280;29709;52.396;16.796;2023-01-29T00:27:32;102684.77;;;1.02;69.37
44044;BME280;29709;52.396;16.796;2023-01-29T00:30:35;102686.89;;;0.94;69.11
44044;BME280;29709;52.396;16.796;2023-01-29T00:33:39;102688.02;;;0.88;69.37
44044;BME280;29709;52.396;16.796;2023-01-29T00:36:42;102673.61;;;0.88;69.26
44044;BME280;29709;52.396;16.796;2023-01-29T00:39:48;102672.80;;;0.85;69.34
44044;BME280;29709;52.396;16.796;2023-01-29T00:42:51;102666.60;;;0.82;69.29
44044;BME280;29709;52.396;16.796;2023-01-29T00:46:07;102669.44;;;0.79;69.24
44044;BME280;29709;52.396;16.796;2023-01-29T00:49:38;102670.80;;;0.67;69.53
44044;BME280;29709;52.396;16.796;2023-01-29T00:52:42;102669.16;;;0.63;69.66
44044;BME280;29709;52.396;16.796;2023-01-29T00:55:45;102672.75;;;0.64;69.98
44044;BME280;29709;52.396;16.796;2023-01-29T00:58:48;102665.38;;;0.67;69.75
44044;BME280;29709;52.396;16.796;2023-01-29T01:01:51;102663.74;;;0.63;69.80
44044;BME280;29709;52.396;16.796;2023-01-29T01:05:09;102685.09;;;0.71;69.93
44044;BME280;29709;52.396;16.796;2023-01-29T01:08:19;102674.18;;;0.72;69.81
44044;BME280;29709;52.396;16.796;2023-01-29T01:11:59;102689.93;;;0.63;69.65
44044;BME280;29709;52.396;16.796;2023-01-29T01:15:03;102683.73;;;0.59;69.68
44044;BME280;29709;52.396;16.796;2023-01-29T01:18:07;102685.55;;;0.58;69.71
44044;BME280;29709;52.396;16.796;2023-01-29T01:21:10;102673.98;;;0.55;69.80
44044;BME280;29709;52.396;16.796;2023-01-29T01:24:13;102670.33;;;0.56;69.87
44044;BME280;29709;52.396;16.796;2023-01-29T01:27:18;102670.38;;;0.54;69.75
44044;BME280;29709;52.396;16.796;2023-01-29T01:30:25;102659.72;;;0.50;69.99
44044;BME280;29709;52.396;16.796;2023-01-29T01:33:29;102661.61;;;0.48;69.88
44044;BME280;29709;52.396;16.796;2023-01-29T01:36:32;102664.56;;;0.42;69.92
44044;BME280;29709;52.396;16.796;2023-01-29T01:40:01;102677.37;;;0.37;70.22
44044;BME280;29709;52.396;16.796;2023-01-29T01:43:05;102672.14;;;0.32;70.28
44044;BME280;29709;52.396;16.796;2023-01-29T01:46:08;102672.90;;;0.36;70.29
44044;BME280;29709;52.396;16.796;2023-01-29T01:49:17;102675.48;;;0.39;70.33
44044;BME280;29709;52.396;16.796;2023-01-29T01:52:23;102667.43;;;0.37;70.84
44044;BME280;29709;52.396;16.796;2023-01-29T01:55:28;102667.43;;;0.37;70.81
44044;BME280;29709;52.396;16.796;2023-01-29T01:58:44;102657.60;;;0.35;70.54
44044;BME280;29709;52.396;16.796;2023-01-29T02:02:15;102669.64;;;0.26;70.75
44044;BME280;29709;52.396;16.796;2023-01-29T02:05:33;102654.58;;;0.19;70.93
44044;BME280;29709;52.396;16.796;2023-01-29T02:08:58;102662.74;;;0.17;71.42
44044;BME280;29709;52.396;16.796;2023-01-29T02:12:42;102666.34;;;0.18;71.45
44044;BME280;29709;52.396;16.796;2023-01-29T02:15:46;102654.58;;;0.19;71.56
44044;BME280;29709;52.396;16.796;2023-01-29T02:18:50;102653.70;;;0.18;71.52
44044;BME280;29709;52.396;16.796;2023-01-29T02:22:10;102652.76;;;0.19;71.63
44044;BME280;29709;52.396;16.796;2023-01-29T02:29:05;102665.33;;;0.20;71.87
44044;BME280;29709;52.396;16.796;2023-01-29T02:35:43;102650.66;;;0.27;71.85
44044;BME280;29709;52.396;16.796;2023-01-29T02:45:23;102638.27;;;0.22;72.37
44044;BME280;29709;52.396;16.796;2023-01-29T02:48:41;102636.20;;;0.28;72.12
44044;BME280;29709;52.396;16.796;2023-01-29T02:51:54;102651.38;;;0.33;72.09
44044;BME280;29709;52.396;16.796;2023-01-29T02:55:05;102644.91;;;0.37;71.92
44044;BME280;29709;52.396;16.796;2023-01-29T02:58:19;102643.81;;;0.42;71.82
44044;BME280;29709;52.396;16.796;2023-01-29T03:01:33;102641.04;;;0.44;71.95
44044;BME280;29709;52.396;16.796;2023-01-29T03:04:42;102633.74;;;0.46;71.50
44044;BME280;29709;52.396;16.796;2023-01-29T03:07:53;102632.92;;;0.44;71.86
44044;BME280;29709;52.396;16.796;2023-01-29T03:11:03;102641.10;;;0.42;71.71
44044;BME280;29709;52.396;16.796;2023-01-29T03:14:15;102638.55;;;0.38;71.56
44044;BME280;29709;52.396;16.796;2023-01-29T03:17:25;102633.02;;;0.41;71.52
44044;BME280;29709;52.396;16.796;2023-01-29T03:20:39;102627.45;;;0.45;71.39
44044;BME280;29709;52.396;16.796;2023-01-29T03:23:50;102610.34;;;0.45;71.52
44044;BME280;29709;52.396;16.796;2023-01-29T03:27:11;102609.46;;;0.44;71.51
44044;BME280;29709;52.396;16.796;2023-01-29T03:30:33;102606.85;;;0.41;71.31
44044;BME280;29709;52.396;16.796;2023-01-29T03:34:00;102596.89;;;0.43;71.54
44044;BME280;29709;52.396;16.796;2023-01-29T03:37:12;102594.18;;;0.43;71.49
44044;BME280;29709;52.396;16.796;2023-01-29T03:40:17;102586.06;;;0.43;71.57
44044;BME280;29709;52.396;16.796;2023-01-29T03:43:59;102579.77;;;0.43;71.71
44044;BME280;29709;52.396;16.796;2023-01-29T03:50:28;102564.98;;;0.51;71.56
44044;BME280;29709;52.396;16.796;2023-01-29T03:57:01;102557.94;;;0.47;71.35
44044;BME280;29709;52.396;16.796;2023-01-29T04:03:30;102567.75;;;0.50;71.69
44044;BME280;29709;52.396;16.796;2023-01-29T04:06:34;102563.93;;;0.55;71.31
44044;BME280;29709;52.396;16.796;2023-01-29T04:09:45;102547.87;;;0.51;71.53
44044;BME280;29709;52.396;16.796;2023-01-29T04:12:55;102544.35;;;0.49;71.40
44044;BME280;29709;52.396;16.796;2023-01-29T04:16:01;102551.35;;;0.54;71.68
44044;BME280;29709;52.396;16.796;2023-01-29T04:19:08;102543.97;;;0.58;71.34
44044;BME280;29709;52.396;16.796;2023-01-29T04:22:39;102543.10;;;0.57;71.64
44044;BME280;29709;52.396;16.796;2023-01-29T04:25:49;102538.20;;;0.67;71.32
44044;BME280;29709;52.396;16.796;2023-01-29T04:29:08;102535.37;;;0.70;71.29
44044;BME280;29709;52.396;16.796;2023-01-29T04:32:16;102519.62;;;0.58;71.58
44044;BME280;29709;52.396;16.796;2023-01-29T04:35:30;102523.09;;;0.62;71.51
44044;BME280;29709;52.396;16.796;2023-01-29T04:48:24;102506.16;;;0.56;72.41
44044;BME280;29709;52.396;16.796;2023-01-29T04:58:10;102484.77;;;0.50;73.09
44044;BME280;29709;52.396;16.796;2023-01-29T05:01:16;102495.72;;;0.47;73.54
44044;BME280;29709;52.396;16.796;2023-01-29T05:04:21;102497.55;;;0.47;73.32
44044;BME280;29709;52.396;16.796;2023-01-29T05:07:28;102501.77;;;0.54;73.62
44044;BME280;29709;52.396;16.796;2023-01-29T05:10:33;102493.29;;;0.63;73.21
44044;BME280;29709;52.396;16.796;2023-01-29T05:14:05;102494.20;;;0.62;72.85
44044;BME280;29709;52.396;16.796;2023-01-29T05:17:15;102485.28;;;0.60;72.81
44044;BME280;29709;52.396;16.796;2023-01-29T05:20:20;102475.46;;;0.57;72.65
44044;BME280;29709;52.396;16.796;2023-01-29T05:23:24;102472.75;;;0.57;72.67
44044;BME280;29709;52.396;16.796;2023-01-29T05:26:28;102479.78;;;0.62;72.76
44044;BME280;29709;52.396;16.796;2023-01-29T05:29:47;102485.17;;;0.63;72.77
44044;BME280;29709;52.396;16.796;2023-01-29T05:32:50;102484.90;;;0.69;72.75
44044;BME280;29709;52.396;16.796;2023-01-29T05:36:19;102481.31;;;0.69;72.56
44044;BME280;29709;52.396;16.796;2023-01-29T05:39:22;102473.05;;;0.72;72.42
44044;BME280;29709;52.396;16.796;2023-01-29T05:42:26;102480.19;;;0.74;72.66
44044;BME280;29709;52.396;16.796;2023-01-29T05:45:29;102489.67;;;0.84;72.23
44044;BME280;29709;52.396;16.796;2023-01-29T05:48:32;102498.26;;;0.74;72.58
44044;BME280;29709;52.396;16.796;2023-01-29T05:51:36;102501.70;;;0.77;72.53
44044;BME280;29709;52.396;16.796;2023-01-29T05:54:39;102503.70;;;0.72;72.48
44044;BME280;29709;52.396;16.796;2023-01-29T05:57:42;102497.40;;;0.72;72.69
44044;BME280;29709;52.396;16.796;2023-01-29T06:00:46;102494.59;;;0.75;72.64
44044;BME280;29709;52.396;16.796;2023-01-29T06:03:49;102494.32;;;0.81;73.20
44044;BME280;29709;52.396;16.796;2023-01-29T06:07:19;102515.91;;;0.82;73.28
44044;BME280;29709;52.396;16.796;2023-01-29T06:10:22;102511.57;;;0.78;73.37
44044;BME280;29709;52.396;16.796;2023-01-29T06:13:26;102511.78;;;0.74;73.99
44044;BME280;29709;52.396;16.796;2023-01-29T06:16:29;102507.42;;;0.70;74.35
44044;BME280;29709;52.396;16.796;2023-01-29T06:19:32;102506.85;;;0.62;75.07
44044;BME280;29709;52.396;16.796;2023-01-29T06:22:35;102503.26;;;0.61;75.50
44044;BME280;29709;52.396;16.796;2023-01-29T06:25:38;102501.33;;;0.65;75.98
44044;BME280;29709;52.396;16.796;2023-01-29T06:28:42;102501.33;;;0.65;76.13
44044;BME280;29709;52.396;16.796;2023-01-29T06:31:47;102515.91;;;0.61;76.90
44044;BME280;29709;52.396;16.796;2023-01-29T06:34:50;102526.73;;;0.61;76.92
44044;BME280;29709;52.396;16.796;2023-01-29T06:38:20;102535.05;;;0.56;77.44
44044;BME280;29709;52.396;16.796;2023-01-29T06:41:23;102527.88;;;0.55;77.87
44044;BME280;29709;52.396;16.796;2023-01-29T06:44:27;102535.98;;;0.55;79.30
44044;BME280;29709;52.396;16.796;2023-01-29T06:47:30;102528.45;;;0.63;78.37
44044;BME280;29709;52.396;16.796;2023-01-29T06:50:33;102531.10;;;0.65;78.98
44044;BME280;29709;52.396;16.796;2023-01-29T06:53:37;102525.32;;;0.74;78.25
44044;BME280;29709;52.396;16.796;2023-01-29T06:56:41;102519.90;;;0.74;78.74
44044;BME280;29709;52.396;16.796;2023-01-29T06:59:44;102522.48;;;0.77;78.75
44044;BME280;29709;52.396;16.796;2023-01-29T07:02:50;102513.34;;;0.79;78.43
44044;BME280;29709;52.396;16.796;2023-01-29T07:06:29;102504.54;;;0.74;79.12
44044;BME280;29709;52.396;16.796;2023-01-29T07:09:32;102500.52;;;0.84;79.29
44044;BME280;29709;52.396;16.796;2023-01-29T07:12:35;102501.91;;;0.93;78.80
44044;BME280;29709;52.396;16.796;2023-01-29T07:15:39;102493.34;;;0.83;78.66
44044;BME280;29709;52.396;16.796;2023-01-29T07:18:42;102487.02;;;0.83;79.24
44044;BME280;29709;52.396;16.796;2023-01-29T07:21:45;102488.24;;;0.76;79.37
44044;BME280;29709;52.396;16.796;2023-01-29T07:24:48;102491.67;;;0.79;79.53
44044;BME280;29709;52.396;16.796;2023-01-29T07:27:52;102482.62;;;0.80;79.78
44044;BME280;29709;52.396;16.796;2023-01-29T07:30:58;102473.38;;;0.86;79.80
44044;BME280;29709;52.396;16.796;2023-01-29T07:34:27;102484.27;;;0.84;79.74
44044;BME280;29709;52.396;16.796;2023-01-29T07:37:30;102479.16;;;0.77;79.89
44044;BME280;29709;52.396;16.796;2023-01-29T07:40:34;102476.15;;;0.84;80.50
44044;BME280;29709;52.396;16.796;2023-01-29T07:43:37;102473.92;;;0.94;80.14
44044;BME280;29709;52.396;16.796;2023-01-29T07:46:41;102477.37;;;0.98;80.09
44044;BME280;29709;52.396;16.796;2023-01-29T07:49:44;102477.16;;;1.02;80.08
44044;BME280;29709;52.396;16.796;2023-01-29T07:52:47;102469.12;;;1.01;79.95
44044;BME280;29709;52.396;16.796;2023-01-29T07:55:51;102480.02;;;0.99;79.83
44044;BME280;29709;52.396;16.796;2023-01-29T07:58:54;102492.42;;;1.05;79.63
44044;BME280;29709;52.396;16.796;2023-01-29T08:01:58;102494.25;;;1.04;79.78
44044;BME280;29709;52.396;16.796;2023-01-29T08:05:26;102498.16;;;0.97;79.81
44044;BME280;29709;52.396;16.796;2023-01-29T08:08:30;102498.83;;;1.02;79.91
44044;BME280;29709;52.396;16.796;2023-01-29T08:11:33;102503.04;;;1.09;79.84
44044;BME280;29709;52.396;16.796;2023-01-29T08:14:36;102502.83;;;1.14;79.81
44044;BME280;29709;52.396;16.796;2023-01-29T08:17:40;102503.60;;;1.18;79.57
44044;BME280;29709;52.396;16.796;2023-01-29T08:20:45;102506.90;;;1.24;79.60
44044;BME280;29709;52.396;16.796;2023-01-29T08:23:48;102495.96;;;1.27;79.26
44044;BME280;29709;52.396;16.796;2023-01-29T08:26:51;102505.63;;;1.33;79.59
44044;BME280;29709;52.396;16.796;2023-01-29T08:29:55;102503.80;;;1.33;80.07
44044;BME280;29709;52.396;16.796;2023-01-29T08:32:58;102489.19;;;1.37;79.59
44044;BME280;29709;52.396;16.796;2023-01-29T08:36:27;102488.41;;;1.34;79.44
44044;BME280;29709;52.396;16.796;2023-01-29T08:39:30;102465.69;;;1.38;79.55
44044;BME280;29709;52.396;16.796;2023-01-29T08:42:33;102457.01;;;1.30;79.03
44044;BME280;29709;52.396;16.796;2023-01-29T08:45:41;102446.51;;;1.22;79.66
44044;BME280;29709;52.396;16.796;2023-01-29T08:48:45;102440.98;;;1.25;79.90
44044;BME280;29709;52.396;16.796;2023-01-29T08:51:49;102446.33;;;1.27;80.22
44044;BME280;29709;52.396;16.796;2023-01-29T08:54:53;102456.14;;;1.29;79.95
44044;BME280;29709;52.396;16.796;2023-01-29T08:57:56;102451.73;;;1.27;80.14
44044;BME280;29709;52.396;16.796;2023-01-29T09:01:06;102444.35;;;1.30;80.03
44044;BME280;29709;52.396;16.796;2023-01-29T09:04:35;102454.37;;;1.28;80.41
44044;BME280;29709;52.396;16.796;2023-01-29T09:07:38;102436.83;;;1.37;80.33
44044;BME280;29709;52.396;16.796;2023-01-29T09:10:41;102443.25;;;1.34;80.14
44044;BME280;29709;52.396;16.796;2023-01-29T09:13:45;102456.05;;;1.31;80.33
44044;BME280;29709;52.396;16.796;2023-01-29T09:16:48;102448.00;;;1.29;80.36
44044;BME280;29709;52.396;16.796;2023-01-29T09:19:51;102459.39;;;1.37;80.52
44044;BME280;29709;52.396;16.796;2023-01-29T09:22:55;102443.93;;;1.39;80.39
44044;BME280;29709;52.396;16.796;2023-01-29T09:26:00;102447.72;;;1.35;79.85
44044;BME280;29709;52.396;16.796;2023-01-29T09:29:03;102442.59;;;1.29;80.52
44044;BME280;29709;52.396;16.796;2023-01-29T09:32:07;102448.66;;;1.34;80.81
44044;BME280;29709;52.396;16.796;2023-01-29T09:35:40;102452.87;;;1.41;80.69
44044;BME280;29709;52.396;16.796;2023-01-29T09:38:43;102441.76;;;1.48;80.33
44044;BME280;29709;52.396;16.796;2023-01-29T09:42:00;102437.34;;;1.45;80.70
44044;BME280;29709;52.396;16.796;2023-01-29T09:45:12;102446.31;;;1.47;80.78
44044;BME280;29709;52.396;16.796;2023-01-29T09:48:18;102440.73;;;1.50;80.57
44044;BME280;29709;52.396;16.796;2023-01-29T09:51:29;102449.89;;;1.48;80.81
44044;BME280;29709;52.396;16.796;2023-01-29T09:58:26;102442.76;;;1.45;81.08
44044;BME280;29709;52.396;16.796;2023-01-29T10:05:02;102430.40;;;1.39;80.66
44044;BME280;29709;52.396;16.796;2023-01-29T10:24:54;102403.53;;;1.54;80.70
44044;BME280;29709;52.396;16.796;2023-01-29T10:28:00;102393.49;;;1.56;80.31
44044;BME280;29709;52.396;16.796;2023-01-29T10:31:30;102397.39;;;1.50;80.71
44044;BME280;29709;52.396;16.796;2023-01-29T10:34:48;102386.24;;;1.56;80.74
44044;BME280;29709;52.396;16.796;2023-01-29T10:37:57;102380.62;;;1.61;80.59
44044;BME280;29709;52.396;16.796;2023-01-29T10:44:42;102376.45;;;1.72;80.17
44044;BME280;29709;52.396;16.796;2023-01-29T10:47:46;102372.78;;;1.73;80.36
44044;BME280;29709;52.396;16.796;2023-01-29T11:00:40;102354.84;;;1.71;80.53
44044;BME280;29709;52.396;16.796;2023-01-29T11:03:43;102355.44;;;1.78;80.57
44044;BME280;29709;52.396;16.796;2023-01-29T11:07:13;102345.31;;;1.81;80.42
44044;BME280;29709;52.396;16.796;2023-01-29T11:10:19;102352.65;;;1.79;80.40
44044;BME280;29709;52.396;16.796;2023-01-29T11:13:30;102350.82;;;1.80;80.29
44044;BME280;29709;52.396;16.796;2023-01-29T11:16:43;102354.48;;;1.79;80.29
44044;BME280;29709;52.396;16.796;2023-01-29T11:19:50;102355.20;;;1.82;80.34
44044;BME280;29709;52.396;16.796;2023-01-29T11:22:54;102337.98;;;1.83;80.17
44044;BME280;29709;52.396;16.796;2023-01-29T11:26:01;102327.22;;;1.82;80.58
44044;BME280;29709;52.396;16.796;2023-01-29T11:32:27;102325.46;;;1.81;80.60
44044;BME280;29709;52.396;16.796;2023-01-29T11:35:31;102322.75;;;1.81;81.04
44044;BME280;29709;52.396;16.796;2023-01-29T11:42:20;102305.24;;;1.88;80.52
44044;BME280;29709;52.396;16.796;2023-01-29T11:45:30;102299.58;;;1.92;80.97
44044;BME280;29709;52.396;16.796;2023-01-29T11:48:43;102276.47;;;2.02;80.57
44044;BME280;29709;52.396;16.796;2023-01-29T11:51:53;102274.94;;;1.97;80.40
44044;BME280;29709;52.396;16.796;2023-01-29T11:58:26;102284.77;;;1.99;80.47
44044;BME280;29709;52.396;16.796;2023-01-29T12:01:38;102274.13;;;1.95;80.51
44044;BME280;29709;52.396;16.796;2023-01-29T12:04:43;102262.83;;;2.04;80.72
44044;BME280;29709;52.396;16.796;2023-01-29T12:08:17;102264.25;;;1.94;80.84
44044;BME280;29709;52.396;16.796;2023-01-29T12:11:30;102263.38;;;1.93;81.12
44044;BME280;29709;52.396;16.796;2023-01-29T12:14:33;102250.31;;;2.01;80.89
44044;BME280;29709;52.396;16.796;2023-01-29T12:17:39;102253.73;;;2.05;80.98
44044;BME280;29709;52.396;16.796;2023-01-29T12:20:50;102248.15;;;2.08;80.68
44044;BME280;29709;52.396;16.796;2023-01-29T12:24:05;102252.47;;;2.12;81.03
44044;BME280;29709;52.396;16.796;2023-01-29T12:37:22;102236.82;;;2.17;81.00
44044;BME280;29709;52.396;16.796;2023-01-29T12:40:13;102226.72;;;2.21;81.06
44044;BME280;29709;52.396;16.796;2023-01-29T12:43:34;102223.74;;;2.25;80.99
44044;BME280;29709;52.396;16.796;2023-01-29T12:46:39;102229.84;;;2.30;81.26
44044;BME280;29709;52.396;16.796;2023-01-29T12:49:53;102233.34;;;2.33;80.89
44044;BME280;29709;52.396;16.796;2023-01-29T12:56:15;102213.95;;;2.23;80.80
44044;BME280;29709;52.396;16.796;2023-01-29T12:59:30;102219.20;;;2.26;81.39
44044;BME280;29709;52.396;16.796;2023-01-29T13:02:39;102219.99;;;2.28;80.73
44044;BME280;29709;52.396;16.796;2023-01-29T13:05:52;102211.62;;;2.15;81.08
44044;BME280;29709;52.396;16.796;2023-01-29T13:09:00;102207.46;;;2.08;81.46
44044;BME280;29709;52.396;16.796;2023-01-29T13:12:14;102194.65;;;2.12;81.62
44044;BME280;29709;52.396;16.796;2023-01-29T13:15:28;102178.03;;;2.18;81.55
44044;BME280;29709;52.396;16.796;2023-01-29T13:18:40;102171.65;;;2.19;81.10
44044;BME280;29709;52.396;16.796;2023-01-29T13:21:46;102173.17;;;2.24;81.48
44044;BME280;29709;52.396;16.796;2023-01-29T13:25:17;102167.84;;;2.23;81.46
44044;BME280;29709;52.396;16.796;2023-01-29T13:28:24;102174.30;;;2.20;81.71
44044;BME280;29709;52.396;16.796;2023-01-29T13:31:34;102183.85;;;2.27;81.79
44044;BME280;29709;52.396;16.796;2023-01-29T13:34:45;102189.05;;;2.32;81.34
44044;BME280;29709;52.396;16.796;2023-01-29T13:37:53;102188.58;;;2.24;81.55
44044;BME280;29709;52.396;16.796;2023-01-29T13:41:02;102178.77;;;2.21;81.80
44044;BME280;29709;52.396;16.796;2023-01-29T13:47:27;102182.75;;;2.14;82.05
44044;BME280;29709;52.396;16.796;2023-01-29T13:52:39;102169.98;;;2.16;82.08
44044;BME280;29709;52.396;16.796;2023-01-29T13:55:46;102171.02;;;2.14;81.98
44044;BME280;29709;52.396;16.796;2023-01-29T13:58:53;102177.50;;;2.11;82.53
44044;BME280;29709;52.396;16.796;2023-01-29T14:02:00;102169.20;;;2.14;82.19
44044;BME280;29709;52.396;16.796;2023-01-29T14:11:36;102152.91;;;2.14;82.44
44044;BME280;29709;52.396;16.796;2023-01-29T14:18:21;102160.88;;;2.17;82.59
44044;BME280;29709;52.396;16.796;2023-01-29T14:21:31;102158.03;;;2.20;82.33
44044;BME280;29709;52.396;16.796;2023-01-29T14:24:35;102146.37;;;2.18;82.34
44044;BME280;29709;52.396;16.796;2023-01-29T14:27:39;102154.50;;;2.18;82.26
44044;BME280;29709;52.396;16.796;2023-01-29T14:30:46;102145.10;;;2.08;82.83
44044;BME280;29709;52.396;16.796;2023-01-29T14:33:51;102157.55;;;2.12;83.05
44044;BME280;29709;52.396;16.796;2023-01-29T14:40:34;102150.12;;;2.16;83.14
44044;BME280;29709;52.396;16.796;2023-01-29T14:43:39;102153.71;;;2.16;83.34
44044;BME280;29709;52.396;16.796;2023-01-29T14:46:43;102144.87;;;2.13;83.31
44044;BME280;29709;52.396;16.796;2023-01-29T14:49:54;102139.53;;;2.11;83.29
44044;BME280;29709;52.396;16.796;2023-01-29T14:59:35;102139.14;;;2.01;83.71
44044;BME280;29709;52.396;16.796;2023-01-29T15:02:42;102127.55;;;1.98;83.57
44044;BME280;29709;52.396;16.796;2023-01-29T15:05:47;102121.51;;;1.93;83.83
44044;BME280;29709;52.396;16.796;2023-01-29T15:12:15;102123.42;;;1.91;84.40
44044;BME280;29709;52.396;16.796;2023-01-29T15:18:38;102116.56;;;2.01;84.90
44044;BME280;29709;52.396;16.796;2023-01-29T15:25:08;102108.09;;;2.07;84.61
44044;BME280;29709;52.396;16.796;2023-01-29T15:28:12;102109.84;;;2.08;84.34
44044;BME280;29709;52.396;16.796;2023-01-29T15:31:41;102104.77;;;2.02;84.41
44044;BME280;29709;52.396;16.796;2023-01-29T15:34:45;102103.09;;;1.99;84.49
44044;BME280;29709;52.396;16.796;2023-01-29T15:37:58;102093.12;;;2.00;84.19
44044;BME280;29709;52.396;16.796;2023-01-29T15:41:25;102087.80;;;1.98;84.63
44044;BME280;29709;52.396;16.796;2023-01-29T15:44:14;102100.21;;;2.02;84.20
44044;BME280;29709;52.396;16.796;2023-01-29T15:47:20;102093.22;;;1.98;84.64
44044;BME280;29709;52.396;16.796;2023-01-29T15:50:25;102101.09;;;2.03;84.30
44044;BME280;29709;52.396;16.796;2023-01-29T15:53:58;102094.87;;;2.01;84.04
44044;BME280;29709;52.396;16.796;2023-01-29T15:57:03;102085.78;;;2.02;84.39
44044;BME280;29709;52.396;16.796;2023-01-29T16:00:16;102088.23;;;2.07;84.22
44044;BME280;29709;52.396;16.796;2023-01-29T16:03:21;102086.40;;;2.07;83.83
44044;BME280;29709;52.396;16.796;2023-01-29T16:06:25;102074.77;;;2.05;84.17
44044;BME280;29709;52.396;16.796;2023-01-29T16:09:29;102068.38;;;2.06;84.02
44044;BME280;29709;52.396;16.796;2023-01-29T16:12:33;102073.88;;;2.05;84.26
44044;BME280;29709;52.396;16.796;2023-01-29T16:16:16;102059.36;;;2.06;84.24
44044;BME280;29709;52.396;16.796;2023-01-29T16:19:23;102059.28;;;2.07;84.25
44044;BME280;29709;52.396;16.796;2023-01-29T16:22:34;102060.62;;;2.16;84.18
44044;BME280;29709;52.396;16.796;2023-01-29T16:25:39;102056.07;;;2.16;83.93
44044;BME280;29709;52.396;16.796;2023-01-29T16:28:43;102049.59;;;2.19;83.66
44044;BME280;29709;52.396;16.796;2023-01-29T16:31:51;102056.85;;;2.18;83.78
44044;BME280;29709;52.396;16.796;2023-01-29T16:35:01;102051.43;;;2.18;83.73
44044;BME280;29709;52.396;16.796;2023-01-29T16:38:32;102053.45;;;2.15;83.72
44044;BME280;29709;52.396;16.796;2023-01-29T16:41:37;102036.56;;;2.10;83.99
44044;BME280;29709;52.396;16.796;2023-01-29T16:44:46;102034.81;;;2.09;83.99
44044;BME280;29709;52.396;16.796;2023-01-29T16:47:59;102039.60;;;2.03;83.98
44044;BME280;29709;52.396;16.796;2023-01-29T16:51:28;102027.96;;;2.01;83.91
44044;BME280;29709;52.396;16.796;2023-01-29T16:54:24;102036.09;;;2.01;84.17
44044;BME280;29709;52.396;16.796;2023-01-29T16:57:32;102024.98;;;2.06;84.04
44044;BME280;29709;52.396;16.796;2023-01-29T17:00:35;102040.39;;;2.06;83.97
44044;BME280;29709;52.396;16.796;2023-01-29T17:03:42;102036.09;;;2.01;83.98
44044;BME280;29709;52.396;16.796;2023-01-29T17:07:15;102037.93;;;2.01;84.18
44044;BME280;29709;52.396;16.796;2023-01-29T17:10:25;102029.08;;;1.97;84.12
44044;BME280;29709;52.396;16.796;2023-01-29T17:13:36;102032.60;;;1.99;83.98
44044;BME280;29709;52.396;16.796;2023-01-29T17:16:51;102028.84;;;2.02;83.57
44044;BME280;29709;52.396;16.796;2023-01-29T17:19:56;102034.27;;;2.02;83.73
44044;BME280;29709;52.396;16.796;2023-01-29T17:23:00;102020.70;;;2.02;83.92
44044;BME280;29709;52.396;16.796;2023-01-29T17:26:29;102030.59;;;2.03;83.55
44044;BME280;29709;52.396;16.796;2023-01-29T17:29:33;102016.06;;;2.04;83.75
44044;BME280;29709;52.396;16.796;2023-01-29T17:32:36;102017.91;;;2.03;83.39
44044;BME280;29709;52.396;16.796;2023-01-29T17:35:42;102016.95;;;2.05;83.44
44044;BME280;29709;52.396;16.796;2023-01-29T17:38:45;102011.43;;;2.06;83.30
44044;BME280;29709;52.396;16.796;2023-01-29T17:41:56;102015.02;;;2.07;83.08
44044;BME280;29709;52.396;16.796;2023-01-29T17:45:00;102004.08;;;2.08;83.08
44044;BME280;29709;52.396;16.796;2023-01-29T17:48:07;102002.42;;;2.06;82.87
44044;BME280;29709;52.396;16.796;2023-01-29T17:51:15;102004.26;;;2.05;82.65
44044;BME280;29709;52.396;16.796;2023-01-29T17:54:20;101992.54;;;2.05;82.72
44044;BME280;29709;52.396;16.796;2023-01-29T17:57:49;101988.34;;;1.99;82.77
44044;BME280;29709;52.396;16.796;2023-01-29T18:00:53;101982.98;;;1.97;82.83
44044;BME280;29709;52.396;16.796;2023-01-29T18:03:57;101970.47;;;1.95;82.97
44044;BME280;29709;52.396;16.796;2023-01-29T18:07:00;101979.06;;;2.03;83.05
44044;BME280;29709;52.396;16.796;2023-01-29T18:10:04;101976.27;;;2.05;82.86
44044;BME280;29709;52.396;16.796;2023-01-29T18:13:08;101988.72;;;2.09;82.54
44044;BME280;29709;52.396;16.796;2023-01-29T18:16:12;101979.06;;;2.03;82.61
44044;BME280;29709;52.396;16.796;2023-01-29T18:19:23;101972.77;;;2.02;83.09
44044;BME280;29709;52.396;16.796;2023-01-29T18:22:56;101972.67;;;2.04;82.79
44044;BME280;29709;52.396;16.796;2023-01-29T18:25:59;101974.43;;;2.05;82.54
44044;BME280;29709;52.396;16.796;2023-01-29T18:29:03;101949.16;;;2.05;82.79
44044;BME280;29709;52.396;16.796;2023-01-29T18:32:07;101957.28;;;2.05;82.45
44044;BME280;29709;52.396;16.796;2023-01-29T18:35:10;101951.17;;;2.01;82.70
44044;BME280;29709;52.396;16.796;2023-01-29T18:38:14;101936.56;;;2.03;82.49
44044;BME280;29709;52.396;16.796;2023-01-29T18:41:18;101934.73;;;2.04;82.53
44044;BME280;29709;52.396;16.796;2023-01-29T18:44:21;101926.67;;;2.02;82.70
44044;BME280;29709;52.396;16.796;2023-01-29T18:47:24;101913.99;;;2.03;82.33